EFTU

Turku Airport

Airport
ICAO code
EFTU
IATA Code
TKU
Summary
ICAO Region
EUR
ICAO Territory
Location

Maaria-Paattinen, Varsinais-Suomi

Serving
Turku
Elevation
161 ft
Coordinates
60° 30' 53" N , 22° 15' 42" E
KCC
Metar
Observation
EFTU 281150Z AUTO 08003KT 9999 OVC010 M01/M02 Q1031 REFZRA
Station
Turku
Date/Time
2022-11-28 11:50:00
Wind direction
80°
Wind speed
03 kts
Lowest cloud amount
overcast
Temperature
-1°C
Dew point
-2°C
Humidity
92%
QNH
1031 hPa
Weather condition
n/a

Turku Airport, is located in Turku, Finland, 8km north of the centre,[2] in Lentokenttä district in the Maaria-Paattinen ward of Turku.

Climatology

Humid continental climate (Köppen climate classification Dfb

Runways

Designator Length Width Surface Rops
8/26 2500 60 ASP Yes/Yes

Airport map

Aerial View

Airport accidents

SKYbrary Partners:

Safety knowledge contributed by: